首页
METAR-TAF:

METAR-TAF

机场 :

圣布里厄, 法国

纬度: 48-32N, 经度: 002-51W, 海拔: 138米

当前天气观测

该预报发布于26分钟前的15:30 UTC
风速13节,风向南转西南,在西转西南之间变化
温度 10°C
湿度 87%
气压 1010 hPa
能见度10公里或以上
小雨

METAR: LFRT 261530Z AUTO 21013KT 180V240 9999 -RA FEW013/// BKN066/// OVC080/// ///TCU 10/08 Q1010

时间: 16:56 (15:56 UTC)


TAF: 丢失

超过4000个机场的气象观测和天气预报(METAR&TAF报告)。

可查询的气象台以黄色和红色小点在地图上表示。

将鼠标移到小点上方,可查看气象台名称。

然后点击查看天气观测和预报。

如需切换地图:点击带黑十字的绿色按钮放大地图;点击带横线的绿色按钮缩小地图;或者点击绿色箭头查看邻近地区的地图。


METAR-TAF: